Time;durP1;ratioP1;P1;durP2;ratioP2;P2;SDS_P1;SDS_P2;PMS_P1;PMS_P2;Temp;Humidity;BMP_temperature;BMP_pressure;BME280_temperature;BME280_humidity;BME280_pressure;Samples;Min_cycle;Max_cycle;Signal;HPM_P1;HPM_P2
2022/06/08 00:00:46;;;;;;;13.20;7.40;;;;;;;;;;5031061;28;20021;-40
2022/06/08 00:03:15;;;;;;;8.48;5.70;;;;;;;;;;5030753;28;20713;-40
2022/06/08 00:05:40;;;;;;;17.52;6.28;;;;;;;;;;5030548;28;20026;-39
2022/06/08 00:08:06;;;;;;;12.18;5.65;;;;;;;;;;5032175;28;20457;-39
2022/06/08 00:10:31;;;;;;;11.25;6.22;;;;;;;;;;5032242;28;20400;-39
2022/06/08 00:12:56;;;;;;;8.27;5.85;;;;;;;;;;5031507;28;20021;-39
2022/06/08 00:15:22;;;;;;;7.93;5.45;;;;;;;;;;5031589;28;20013;-39
2022/06/08 00:17:47;;;;;;;10.85;5.63;;;;;;;;;;5030821;28;20025;-39
2022/06/08 00:20:13;;;;;;;9.23;5.75;;;;;;;;;;5032170;28;20489;-39
2022/06/08 00:22:39;;;;;;;9.00;5.30;;;;;;;;;;5031813;28;20019;-40
2022/06/08 00:25:04;;;;;;;7.78;5.20;;;;;;;;;;5030173;28;20049;-39
2022/06/08 00:27:30;;;;;;;10.45;5.80;;;;;;;;;;5032887;28;20032;-40
2022/06/08 00:29:55;;;;;;;12.55;5.95;;;;;;;;;;5034449;28;20037;-40
2022/06/08 00:32:20;;;;;;;6.82;5.30;;;;;;;;;;5034601;28;20446;-40
2022/06/08 00:34:46;;;;;;;7.82;5.85;;;;;;;;;;5035049;28;20013;-40
2022/06/08 00:37:11;;;;;;;10.10;5.47;;;;;;;;;;5034562;28;20068;-40
2022/06/08 00:39:36;;;;;;;9.77;5.60;;;;;;;;;;5035898;28;20029;-40
2022/06/08 00:42:03;;;;;;;7.53;5.63;;;;;;;;;;5035715;28;20710;-41
2022/06/08 00:44:34;;;;;;;7.68;4.95;;;;;;;;;;5034492;28;20050;-40
2022/06/08 00:47:01;;;;;;;6.93;5.18;;;;;;;;;;5035545;28;20017;-41
2022/06/08 00:49:31;;;;;;;8.18;5.10;;;;;;;;;;5035524;28;20033;-40
2022/06/08 00:51:57;;;;;;;8.10;5.03;;;;;;;;;;5034323;28;20021;-40
2022/06/08 00:54:26;;;;;;;6.55;5.50;;;;;;;;;;5034855;28;20036;-40
2022/06/08 00:56:54;;;;;;;12.00;5.43;;;;;;;;;;5033911;28;20021;-41
2022/06/08 00:59:19;;;;;;;9.95;5.80;;;;;;;;;;5034262;28;20416;-39
2022/06/08 01:01:45;;;;;;;8.00;5.22;;;;;;;;;;5035598;28;20025;-39
2022/06/08 01:04:17;;;;;;;7.57;5.15;;;;;;;;;;5034374;28;20429;-39
2022/06/08 01:06:44;;;;;;;8.25;4.95;;;;;;;;;;5033951;28;20061;-39
2022/06/08 01:09:29;;;;;;;9.70;5.28;;;;;;;;;;5039131;28;20032;-40
2022/06/08 01:11:57;;;;;;;14.35;6.15;;;;;;;;;;5049830;28;20029;-40
2022/06/08 01:14:23;;;;;;;7.03;6.03;;;;;;;;;;5028725;28;20044;-39
2022/06/08 01:16:57;;;;;;;13.23;5.88;;;;;;;;;;5054899;28;20380;-40
2022/06/08 01:19:22;;;;;;;8.70;5.60;;;;;;;;;;5053667;28;20499;-39
2022/06/08 01:21:48;;;;;;;7.20;6.40;;;;;;;;;;5053633;28;20021;-40
2022/06/08 01:24:14;;;;;;;9.60;6.22;;;;;;;;;;5052705;28;20091;-40
2022/06/08 01:26:39;;;;;;;10.27;6.15;;;;;;;;;;5053635;28;20419;-39
2022/06/08 01:29:24;;;;;;;12.50;7.55;;;;;;;;;;5053636;28;20040;-39
2022/06/08 01:31:57;;;;;;;9.77;6.25;;;;;;;;;;5053653;28;20036;-39
2022/06/08 01:34:38;;;;;;;9.35;6.30;;;;;;;;;;5053792;28;20092;-40
2022/06/08 01:37:23;;;;;;;7.10;5.80;;;;;;;;;;5019343;28;20056;-43
2022/06/08 01:40:09;;;;;;;6.13;5.28;;;;;;;;;;5032567;28;20036;-39
2022/06/08 01:42:42;;;;;;;16.95;6.18;;;;;;;;;;5033185;28;20029;-40
2022/06/08 01:45:52;;;;;;;7.85;5.85;;;;;;;;;;5032617;28;20049;-40
2022/06/08 01:47:57;;;;;;;10.85;6.40;;;;;;;;;;5037585;28;20041;-39
2022/06/08 01:50:50;;;;;;;9.75;5.93;;;;;;;;;;5033151;28;20043;-39
2022/06/08 01:53:30;;;;;;;7.50;6.00;;;;;;;;;;5032509;28;20029;-41
2022/06/08 01:56:03;;;;;;;13.50;5.95;;;;;;;;;;5033988;28;20021;-40
2022/06/08 01:58:33;;;;;;;7.20;5.80;;;;;;;;;;5034463;28;20025;-39
2022/06/08 02:01:08;;;;;;;8.60;5.72;;;;;;;;;;5032957;28;20018;-39
2022/06/08 02:03:50;;;;;;;9.30;6.05;;;;;;;;;;5033567;28;20029;-39
2022/06/08 02:06:20;;;;;;;8.30;5.60;;;;;;;;;;5034145;28;20032;-41
2022/06/08 02:08:56;;;;;;;11.70;6.40;;;;;;;;;;5016253;28;20044;-39
2022/06/08 02:11:35;;;;;;;6.95;4.82;;;;;;;;;;5034424;28;20033;-39
2022/06/08 02:14:06;;;;;;;8.52;5.55;;;;;;;;;;5032147;28;20489;-39
2022/06/08 02:16:37;;;;;;;8.57;5.85;;;;;;;;;;5034252;28;20039;-39
2022/06/08 02:19:15;;;;;;;9.48;5.85;;;;;;;;;;5033810;28;20528;-39
2022/06/08 02:21:46;;;;;;;7.00;5.22;;;;;;;;;;5032757;28;20025;-39
2022/06/08 02:24:32;;;;;;;6.88;6.18;;;;;;;;;;5031945;28;20477;-38
2022/06/08 02:26:59;;;;;;;7.88;5.75;;;;;;;;;;5031920;28;20033;-40
2022/06/08 02:29:29;;;;;;;9.82;6.13;;;;;;;;;;5034031;28;20484;-39
2022/06/08 02:34:27;;;;;;;8.82;5.65;;;;;;;;;;5032638;28;20443;-38
2022/06/08 02:34:52;;;;;;;11.65;5.50;;;;;;;;;;5032752;28;20109;-39
2022/06/08 02:37:19;;;;;;;7.28;5.45;;;;;;;;;;5032021;28;20108;-40
2022/06/08 02:39:51;;;;;;;8.63;5.47;;;;;;;;;;5032599;28;20021;-39
2022/06/08 02:42:23;;;;;;;6.30;5.40;;;;;;;;;;5032244;28;20028;-39
2022/06/08 02:44:50;;;;;;;8.98;5.07;;;;;;;;;;5032742;28;20472;-38
2022/06/08 02:47:15;;;;;;;8.10;6.47;;;;;;;;;;5032105;28;20026;-38
2022/06/08 02:49:41;;;;;;;8.93;6.90;;;;;;;;;;5031647;28;20036;-39
2022/06/08 02:52:20;;;;;;;9.27;6.38;;;;;;;;;;5033132;28;20357;-40
2022/06/08 02:54:46;;;;;;;11.93;6.20;;;;;;;;;;5032556;28;20021;-40
2022/06/08 02:57:14;;;;;;;10.00;7.07;;;;;;;;;;5031943;28;20488;-38
2022/06/08 02:59:40;;;;;;;7.97;6.70;;;;;;;;;;5031751;28;20416;-39
2022/06/08 03:02:09;;;;;;;9.82;7.07;;;;;;;;;;5031809;28;20077;-38
2022/06/08 03:04:55;;;;;;;8.98;6.85;;;;;;;;;;5032333;28;20112;-39
2022/06/08 03:07:23;;;;;;;8.48;6.97;;;;;;;;;;5021744;28;20030;-38
2022/06/08 03:09:50;;;;;;;7.47;6.00;;;;;;;;;;5028259;28;20033;-39
2022/06/08 03:12:18;;;;;;;10.07;6.75;;;;;;;;;;5031702;28;20441;-39
2022/06/08 03:14:47;;;;;;;7.18;6.18;;;;;;;;;;5030687;28;20543;-40
2022/06/08 03:17:14;;;;;;;8.27;7.00;;;;;;;;;;5031697;28;20472;-38
2022/06/08 03:19:40;;;;;;;10.93;6.43;;;;;;;;;;5031537;28;20018;-39
2022/06/08 03:22:05;;;;;;;9.45;6.28;;;;;;;;;;5031615;28;20436;-39
2022/06/08 03:24:31;;;;;;;7.85;6.50;;;;;;;;;;5032123;28;20350;-39
2022/06/08 03:26:59;;;;;;;8.63;6.50;;;;;;;;;;5031376;28;20455;-40
2022/06/08 03:29:26;;;;;;;9.10;7.55;;;;;;;;;;5030972;28;20037;-39
2022/06/08 03:31:52;;;;;;;12.45;7.70;;;;;;;;;;5032681;28;20109;-39
2022/06/08 03:34:17;;;;;;;11.10;6.97;;;;;;;;;;5030431;28;20109;-40
2022/06/08 03:36:43;;;;;;;11.32;7.40;;;;;;;;;;5032506;28;20100;-39
2022/06/08 03:39:09;;;;;;;11.60;7.40;;;;;;;;;;5031285;28;20369;-39
2022/06/08 03:41:34;;;;;;;11.52;7.40;;;;;;;;;;5032396;28;20021;-39
2022/06/08 03:43:59;;;;;;;11.05;8.57;;;;;;;;;;5031482;28;20508;-40
2022/06/08 03:46:26;;;;;;;9.05;7.47;;;;;;;;;;5030674;28;20025;-39
2022/06/08 03:48:52;;;;;;;13.10;8.30;;;;;;;;;;5031282;28;20396;-39
2022/06/08 03:51:18;;;;;;;9.88;7.50;;;;;;;;;;5032354;28;20025;-41
2022/06/08 03:53:46;;;;;;;11.52;8.50;;;;;;;;;;5031196;28;20048;-39
2022/06/08 03:56:13;;;;;;;12.17;9.27;;;;;;;;;;5032601;28;20533;-39
2022/06/08 03:58:39;;;;;;;10.23;8.32;;;;;;;;;;5032041;28;20036;-39
2022/06/08 04:01:04;;;;;;;9.30;6.80;;;;;;;;;;5031251;28;20048;-38
2022/06/08 04:03:30;;;;;;;14.85;7.85;;;;;;;;;;5031911;28;20029;-39
2022/06/08 04:05:58;;;;;;;10.65;7.85;;;;;;;;;;5032272;28;20009;-39
2022/06/08 04:08:24;;;;;;;11.75;7.40;;;;;;;;;;5032018;28;20021;-38
2022/06/08 04:10:50;;;;;;;7.30;6.53;;;;;;;;;;5031029;28;20022;-38
2022/06/08 04:13:15;;;;;;;11.35;7.07;;;;;;;;;;5030414;28;20028;-39
2022/06/08 04:15:43;;;;;;;14.75;7.05;;;;;;;;;;5030793;28;20122;-38
2022/06/08 04:18:09;;;;;;;18.83;7.22;;;;;;;;;;5030875;28;20021;-40
2022/06/08 04:20:35;;;;;;;16.52;6.78;;;;;;;;;;5030992;28;20030;-38
2022/06/08 04:23:01;;;;;;;10.65;7.28;;;;;;;;;;5030589;28;20586;-38
2022/06/08 04:25:27;;;;;;;9.68;7.10;;;;;;;;;;5031964;28;20024;-38
2022/06/08 04:27:53;;;;;;;11.07;7.05;;;;;;;;;;5031934;28;20485;-39
2022/06/08 04:30:18;;;;;;;12.25;5.60;;;;;;;;;;5031680;28;20033;-40
2022/06/08 04:32:43;;;;;;;9.52;6.70;;;;;;;;;;5031999;28;20018;-39
2022/06/08 04:35:09;;;;;;;9.23;6.18;;;;;;;;;;5032140;28;20516;-38
2022/06/08 04:37:37;;;;;;;8.75;6.20;;;;;;;;;;5031888;28;20029;-38
2022/06/08 04:40:04;;;;;;;7.97;5.38;;;;;;;;;;5031862;28;20028;-38
2022/06/08 04:42:29;;;;;;;8.38;6.20;;;;;;;;;;5031475;28;20022;-41
2022/06/08 04:44:54;;;;;;;15.70;7.50;;;;;;;;;;5030244;28;20076;-38
2022/06/08 04:47:20;;;;;;;12.23;7.13;;;;;;;;;;5030855;28;20016;-38
2022/06/08 04:49:45;;;;;;;14.40;6.75;;;;;;;;;;5030477;28;20421;-39
2022/06/08 04:52:10;;;;;;;10.77;5.72;;;;;;;;;;5030487;28;20108;-38
2022/06/08 04:54:36;;;;;;;10.32;5.85;;;;;;;;;;5030250;28;20025;-38
2022/06/08 04:57:01;;;;;;;11.40;6.03;;;;;;;;;;5030441;28;20017;-38
2022/06/08 04:59:27;;;;;;;9.38;4.55;;;;;;;;;;5031553;28;20567;-38
2022/06/08 05:01:52;;;;;;;6.88;5.55;;;;;;;;;;5031495;28;20060;-38
2022/06/08 05:04:18;;;;;;;5.50;4.57;;;;;;;;;;5030113;28;20021;-38
2022/06/08 05:06:43;;;;;;;6.97;5.65;;;;;;;;;;5030463;28;20258;-38
2022/06/08 05:09:08;;;;;;;5.43;4.57;;;;;;;;;;5031766;28;20029;-38
2022/06/08 05:11:33;;;;;;;8.60;5.65;;;;;;;;;;5030462;28;20022;-38
2022/06/08 05:13:59;;;;;;;6.10;5.25;;;;;;;;;;5029809;28;20028;-38
2022/06/08 05:16:24;;;;;;;6.03;5.30;;;;;;;;;;5035078;28;20025;-38
2022/06/08 05:18:49;;;;;;;8.13;5.40;;;;;;;;;;5033706;28;20255;-39
2022/06/08 05:21:15;;;;;;;7.00;5.50;;;;;;;;;;5034021;28;20113;-38
2022/06/08 05:23:43;;;;;;;5.43;4.22;;;;;;;;;;5034715;28;20037;-39
2022/06/08 05:26:08;;;;;;;5.60;4.97;;;;;;;;;;5035219;28;20013;-38
2022/06/08 05:28:34;;;;;;;7.47;5.47;;;;;;;;;;5034678;28;20081;-39
2022/06/08 05:30:59;;;;;;;5.93;4.78;;;;;;;;;;5034934;28;20520;-39
2022/06/08 05:33:26;;;;;;;10.30;4.75;;;;;;;;;;5034651;28;20029;-39
2022/06/08 05:35:52;;;;;;;9.27;4.78;;;;;;;;;;5034949;28;20594;-39
2022/06/08 05:38:17;;;;;;;8.63;4.95;;;;;;;;;;5033559;28;20045;-39
2022/06/08 05:40:43;;;;;;;8.05;4.50;;;;;;;;;;5033332;28;20041;-40
2022/06/08 05:43:10;;;;;;;8.73;4.63;;;;;;;;;;5034478;28;20025;-39
2022/06/08 05:45:35;;;;;;;7.68;4.30;;;;;;;;;;5033213;28;20068;-39
2022/06/08 05:48:02;;;;;;;5.95;3.78;;;;;;;;;;5033538;28;20041;-40
2022/06/08 05:50:28;;;;;;;7.82;4.75;;;;;;;;;;5034550;28;20048;-39
2022/06/08 05:52:53;;;;;;;7.72;4.47;;;;;;;;;;5033747;28;20108;-40
2022/06/08 05:55:19;;;;;;;6.75;3.78;;;;;;;;;;5034402;28;20438;-39
2022/06/08 05:57:45;;;;;;;4.90;3.92;;;;;;;;;;5034254;28;20033;-39
2022/06/08 06:00:13;;;;;;;6.93;3.38;;;;;;;;;;5034215;28;20440;-39
2022/06/08 06:02:38;;;;;;;3.88;3.15;;;;;;;;;;5034180;28;20519;-39
2022/06/08 06:05:04;;;;;;;15.48;3.97;;;;;;;;;;5029494;28;20046;-39
2022/06/08 06:07:29;;;;;;;9.93;4.07;;;;;;;;;;5020774;28;20053;-40
2022/06/08 06:09:55;;;;;;;5.65;2.80;;;;;;;;;;5024818;28;20046;-39
2022/06/08 06:12:20;;;;;;;4.55;3.25;;;;;;;;;;5029145;28;20021;-39
2022/06/08 06:14:46;;;;;;;5.03;3.00;;;;;;;;;;5024288;28;20066;-40
2022/06/08 06:17:12;;;;;;;7.55;3.22;;;;;;;;;;5021772;28;20117;-38
2022/06/08 06:19:37;;;;;;;7.93;2.83;;;;;;;;;;5023229;28;20029;-42
2022/06/08 06:22:02;;;;;;;3.13;2.40;;;;;;;;;;5029404;28;20053;-37
2022/06/08 06:24:28;;;;;;;6.85;3.15;;;;;;;;;;5034919;28;20393;-35
2022/06/08 06:26:54;;;;;;;5.93;2.75;;;;;;;;;;5028110;28;20025;-38
2022/06/08 06:29:19;;;;;;;8.35;2.70;;;;;;;;;;5013056;28;20098;-37
2022/06/08 06:31:47;;;;;;;3.28;2.28;;;;;;;;;;5030580;28;20025;-38
2022/06/08 06:34:13;;;;;;;5.43;2.67;;;;;;;;;;5026666;28;20037;-38
2022/06/08 06:36:38;;;;;;;4.47;2.20;;;;;;;;;;5022434;28;20025;-38
2022/06/08 06:39:04;;;;;;;5.95;2.65;;;;;;;;;;5030646;28;20045;-38
2022/06/08 06:41:29;;;;;;;6.30;2.40;;;;;;;;;;5020282;28;20033;-39
2022/06/08 06:43:55;;;;;;;2.78;2.20;;;;;;;;;;5028013;28;20013;-38
2022/06/08 06:46:20;;;;;;;3.92;2.30;;;;;;;;;;5030167;28;20036;-39
2022/06/08 06:48:45;;;;;;;5.63;2.80;;;;;;;;;;5033883;28;20496;-40
2022/06/08 06:51:11;;;;;;;7.00;2.28;;;;;;;;;;5032680;28;20083;-38
2022/06/08 06:53:36;;;;;;;5.15;2.45;;;;;;;;;;5031627;28;20487;-38
2022/06/08 06:56:02;;;;;;;3.22;2.30;;;;;;;;;;5031211;28;20364;-38
2022/06/08 06:58:27;;;;;;;5.55;2.03;;;;;;;;;;5024761;28;20468;-40
2022/06/08 07:00:53;;;;;;;3.72;2.20;;;;;;;;;;5025149;28;20013;-39
2022/06/08 07:03:18;;;;;;;2.80;2.15;;;;;;;;;;5035796;28;20032;-38
2022/06/08 07:05:44;;;;;;;7.47;1.90;;;;;;;;;;5039988;28;20464;-38
2022/06/08 07:08:09;;;;;;;4.15;2.15;;;;;;;;;;5027279;28;20054;-38
2022/06/08 07:10:36;;;;;;;5.65;2.53;;;;;;;;;;5025247;28;20508;-39
2022/06/08 07:13:02;;;;;;;3.97;2.30;;;;;;;;;;5027559;28;20025;-39
2022/06/08 07:15:28;;;;;;;718.13;392.00;;;;;;;;;;5030412;28;20021;-38
2022/06/08 07:17:54;;;;;;;797.70;581.20;;;;;;;;;;5042435;28;20037;-37
2022/06/08 07:20:19;;;;;;;5.25;2.13;;;;;;;;;;5026370;28;20057;-38
2022/06/08 07:22:45;;;;;;;5.88;1.98;;;;;;;;;;5025216;28;20021;-41
2022/06/08 07:25:11;;;;;;;3.30;2.10;;;;;;;;;;5017254;28;20020;-38
2022/06/08 07:27:37;;;;;;;116.70;107.40;;;;;;;;;;5023886;28;20452;-39
2022/06/08 07:30:03;;;;;;;4.20;2.00;;;;;;;;;;5030064;28;20065;-39
2022/06/08 07:41:32;;;;;;;8.48;2.53;;;;;;;;;;5099614;27;20402;-33
2022/06/08 07:43:57;;;;;;;11.55;2.65;;;;;;;;;;5074904;28;20035;-33
2022/06/08 07:46:23;;;;;;;8.80;2.22;;;;;;;;;;5072481;28;20381;-33
2022/06/08 07:51:33;;;;;;;2.15;1.95;;;;;;;;;;5069820;28;20102;-33
2022/06/08 07:53:59;;;;;;;5.30;2.00;;;;;;;;;;5088421;28;20023;-33
2022/06/08 07:56:24;;;;;;;8.55;2.30;;;;;;;;;;5057331;28;20029;-33
2022/06/08 07:58:49;;;;;;;4.80;2.00;;;;;;;;;;5054511;28;20453;-33
2022/06/08 08:01:15;;;;;;;3.75;2.20;;;;;;;;;;5058463;28;20462;-32
2022/06/08 08:03:40;;;;;;;5.63;2.30;;;;;;;;;;5054282;28;20024;-33
2022/06/08 08:06:06;;;;;;;4.93;2.03;;;;;;;;;;5072521;28;20008;-33
2022/06/08 08:08:32;;;;;;;3.55;2.30;;;;;;;;;;5076879;28;20017;-33
2022/06/08 08:10:58;;;;;;;6.43;2.35;;;;;;;;;;5064455;28;20107;-36
2022/06/08 08:13:23;;;;;;;3.67;2.20;;;;;;;;;;5086959;28;20081;-33
2022/06/08 08:15:51;;;;;;;4.22;2.10;;;;;;;;;;5053622;28;20428;-34
2022/06/08 08:18:17;;;;;;;7.32;2.47;;;;;;;;;;5070799;28;20031;-35
2022/06/08 08:20:42;;;;;;;3.80;2.20;;;;;;;;;;5076997;28;20029;-32
2022/06/08 08:23:10;;;;;;;4.93;2.20;;;;;;;;;;5056654;28;20454;-33
2022/06/08 08:25:36;;;;;;;262.90;156.75;;;;;;;;;;5082233;28;20051;-33
2022/06/08 08:28:02;;;;;;;12.35;8.27;;;;;;;;;;5081712;28;20056;-32
2022/06/08 08:30:28;;;;;;;106.40;50.67;;;;;;;;;;5073851;28;20020;-33
2022/06/08 08:32:54;;;;;;;35.90;8.63;;;;;;;;;;5073544;28;20035;-33
2022/06/08 08:35:21;;;;;;;4.25;2.72;;;;;;;;;;5084330;28;20024;-32
2022/06/08 08:37:47;;;;;;;11.75;6.18;;;;;;;;;;5070464;28;20111;-33
2022/06/08 08:40:31;;;;;;;5.07;3.08;;;;;;;;;;5069596;28;20178;-32
2022/06/08 08:42:56;;;;;;;15.68;3.28;;;;;;;;;;5082263;28;20039;-32
2022/06/08 08:45:22;;;;;;;10.02;2.88;;;;;;;;;;5081531;28;20103;-33
2022/06/08 08:48:00;;;;;;;5.65;2.60;;;;;;;;;;5085693;28;20019;-32
2022/06/08 08:50:44;;;;;;;6.13;2.83;;;;;;;;;;5074784;28;20474;-32
2022/06/08 08:53:24;;;;;;;5.60;2.45;;;;;;;;;;5055665;28;20021;-32
2022/06/08 08:55:49;;;;;;;;;;;;;;;;;;5062806;28;20512;-32
2022/06/08 08:58:17;;;;;;;6.73;2.60;;;;;;;;;;5072078;28;19957;-32
2022/06/08 09:01:04;;;;;;;4.93;3.03;;;;;;;;;;5065589;28;20116;-32
2022/06/08 09:03:29;;;;;;;9.57;2.78;;;;;;;;;;5058951;28;20464;-32
2022/06/08 09:05:57;;;;;;;7.43;3.10;;;;;;;;;;5053612;28;20013;-32
2022/06/08 09:08:23;;;;;;;10.63;2.80;;;;;;;;;;5071092;28;20253;-32
2022/06/08 09:10:49;;;;;;;33.45;3.78;;;;;;;;;;5074702;28;20020;-32
2022/06/08 09:13:22;;;;;;;3.88;2.70;;;;;;;;;;5074797;28;20025;-33
2022/06/08 09:15:49;;;;;;;3.15;2.85;;;;;;;;;;5074606;28;20031;-32
2022/06/08 09:18:35;;;;;;;5.63;3.03;;;;;;;;;;5068733;28;20109;-32
2022/06/08 09:21:18;;;;;;;5.25;2.90;;;;;;;;;;5072139;28;20067;-32
2022/06/08 09:23:44;;;;;;;6.63;2.92;;;;;;;;;;5073363;28;20074;-32
2022/06/08 09:26:13;;;;;;;6.63;2.45;;;;;;;;;;5068044;28;20125;-32
2022/06/08 09:28:39;;;;;;;27.27;3.25;;;;;;;;;;5065921;28;20021;-33
2022/06/08 09:31:05;;;;;;;3.25;2.90;;;;;;;;;;5068324;28;20028;-34
2022/06/08 09:33:36;;;;;;;3.78;2.92;;;;;;;;;;5071974;28;20020;-34
2022/06/08 09:36:04;;;;;;;4.88;2.80;;;;;;;;;;5072962;28;20030;-33
2022/06/08 09:38:33;;;;;;;4.88;2.63;;;;;;;;;;5074144;28;20024;-33
2022/06/08 09:41:16;;;;;;;4.07;2.42;;;;;;;;;;5073646;28;20074;-33
2022/06/08 09:44:02;;;;;;;4.18;2.90;;;;;;;;;;5062283;28;20120;-34
2022/06/08 09:52:09;;;;;;;6.00;2.47;;;;;;;;;;5065054;28;20501;-33
2022/06/08 09:54:43;;;;;;;3.90;2.65;;;;;;;;;;5064414;28;20142;-34
2022/06/08 09:57:21;;;;;;;4.00;2.72;;;;;;;;;;5072144;28;20029;-34
2022/06/08 10:00:10;;;;;;;7.20;2.50;;;;;;;;;;5061782;28;20036;-34
2022/06/08 10:03:01;;;;;;;8.05;3.17;;;;;;;;;;5075707;28;20040;-34
2022/06/08 10:05:38;;;;;;;13.05;8.15;;;;;;;;;;5058251;28;20048;-34
2022/06/08 10:08:22;;;;;;;550.35;167.70;;;;;;;;;;5071835;28;20039;-34
2022/06/08 10:10:47;;;;;;;37.47;17.85;;;;;;;;;;5072575;28;20047;-33
2022/06/08 10:13:28;;;;;;;9.68;3.15;;;;;;;;;;5063268;28;20467;-34
2022/06/08 10:16:01;;;;;;;4.75;3.05;;;;;;;;;;5063983;28;20031;-33
2022/06/08 10:18:29;;;;;;;7.35;3.17;;;;;;;;;;5058078;28;20024;-34
2022/06/08 10:20:59;;;;;;;46.73;18.27;;;;;;;;;;5059546;28;20029;-35
2022/06/08 10:23:33;;;;;;;14.52;10.13;;;;;;;;;;5067320;28;20020;-35
2022/06/08 10:26:08;;;;;;;5.30;2.92;;;;;;;;;;5061649;28;20464;-34
2022/06/08 10:28:48;;;;;;;6.95;2.92;;;;;;;;;;5060532;28;20020;-38
2022/06/08 10:31:17;;;;;;;10.82;2.80;;;;;;;;;;5064581;28;20040;-36
2022/06/08 10:33:46;;;;;;;5.18;3.10;;;;;;;;;;5061330;28;20024;-34
2022/06/08 10:36:11;;;;;;;4.72;2.65;;;;;;;;;;5070130;28;20029;-36
2022/06/08 10:38:43;;;;;;;3.42;2.95;;;;;;;;;;5061430;28;20027;-35
2022/06/08 10:42:39;;;;;;;5.15;3.00;;;;;;;;;;5065222;28;20131;-35
2022/06/08 10:43:54;;;;;;;3.15;2.83;;;;;;;;;;5057061;28;20116;-34
2022/06/08 10:46:42;;;;;;;7.85;2.88;;;;;;;;;;5059452;28;20017;-43
2022/06/08 10:49:37;;;;;;;6.00;3.20;;;;;;;;;;5063081;28;20106;-42
2022/06/08 10:52:13;;;;;;;8.13;3.03;;;;;;;;;;5052374;28;20033;-44
2022/06/08 10:55:01;;;;;;;7.47;3.20;;;;;;;;;;5065090;28;20071;-39
2022/06/08 10:57:42;;;;;;;11.00;3.17;;;;;;;;;;5065124;28;20024;-46
2022/06/08 11:00:19;;;;;;;4.97;3.35;;;;;;;;;;5061709;28;20044;-43
2022/06/08 11:03:02;;;;;;;5.10;2.67;;;;;;;;;;5068902;28;20029;-43
2022/06/08 11:05:35;;;;;;;6.00;3.65;;;;;;;;;;5067897;28;20066;-44
2022/06/08 11:08:01;;;;;;;9.35;3.40;;;;;;;;;;5068637;28;20375;-44
2022/06/08 11:10:44;;;;;;;5.90;3.00;;;;;;;;;;5064860;28;20103;-45
2022/06/08 11:13:22;;;;;;;6.72;3.60;;;;;;;;;;5063231;28;20794;-43
2022/06/08 11:15:53;;;;;;;3.72;3.40;;;;;;;;;;5060245;28;20025;-43
2022/06/08 11:18:31;;;;;;;3.60;2.90;;;;;;;;;;5068174;28;20025;-42
2022/06/08 11:20:57;;;;;;;6.70;3.20;;;;;;;;;;5071895;28;20035;-43
2022/06/08 11:23:38;;;;;;;6.95;3.35;;;;;;;;;;5070749;28;20142;-43
2022/06/08 11:26:23;;;;;;;12.85;3.30;;;;;;;;;;5072481;28;20429;-43
2022/06/08 11:28:53;;;;;;;5.97;3.47;;;;;;;;;;5057895;28;20412;-42
2022/06/08 11:31:25;;;;;;;7.15;3.28;;;;;;;;;;5060241;28;20025;-41
2022/06/08 11:33:59;;;;;;;14.40;4.30;;;;;;;;;;5062365;28;20048;-43
2022/06/08 11:36:43;;;;;;;4.30;3.40;;;;;;;;;;5059723;28;20032;-43
2022/06/08 11:39:38;;;;;;;8.82;3.40;;;;;;;;;;5059098;28;20025;-44
2022/06/08 11:42:24;;;;;;;7.75;3.67;;;;;;;;;;5045689;28;20036;-44
2022/06/08 11:44:51;;;;;;;6.93;3.63;;;;;;;;;;5067204;28;20116;-44
2022/06/08 11:47:19;;;;;;;5.20;3.25;;;;;;;;;;5061915;28;20023;-44
2022/06/08 11:49:46;;;;;;;7.95;3.15;;;;;;;;;;5056308;28;20036;-45
2022/06/08 11:52:18;;;;;;;7.30;3.80;;;;;;;;;;5057365;28;20020;-43
2022/06/08 11:54:44;;;;;;;6.63;3.55;;;;;;;;;;5056331;28;20112;-44
2022/06/08 11:57:14;;;;;;;8.27;2.90;;;;;;;;;;5065230;28;20104;-43
2022/06/08 11:59:43;;;;;;;4.25;3.47;;;;;;;;;;5063906;28;20036;-43
2022/06/08 12:02:20;;;;;;;5.63;3.60;;;;;;;;;;5057252;28;20032;-46
2022/06/08 12:04:48;;;;;;;5.30;3.55;;;;;;;;;;5059846;28;20025;-45
2022/06/08 12:07:25;;;;;;;6.25;3.70;;;;;;;;;;5061702;28;20215;-44
2022/06/08 12:09:50;;;;;;;5.85;3.30;;;;;;;;;;5068209;28;20074;-45
2022/06/08 12:12:18;;;;;;;6.00;3.65;;;;;;;;;;5068370;28;20025;-43
2022/06/08 12:14:44;;;;;;;4.43;3.90;;;;;;;;;;5058871;28;20068;-40
2022/06/08 12:17:10;;;;;;;8.57;3.78;;;;;;;;;;5055164;28;20036;-47
2022/06/08 12:19:43;;;;;;;5.43;3.85;;;;;;;;;;5071388;28;20068;-45
2022/06/08 12:22:14;;;;;;;6.43;3.50;;;;;;;;;;5068984;28;20033;-45
2022/06/08 12:24:39;;;;;;;24.42;4.25;;;;;;;;;;5066124;28;20490;-48
2022/06/08 12:27:23;;;;;;;4.57;3.30;;;;;;;;;;5063501;28;20104;-43
2022/06/08 12:29:57;;;;;;;8.75;4.10;;;;;;;;;;5069356;28;20536;-45
2022/06/08 12:32:24;;;;;;;11.70;4.10;;;;;;;;;;5062397;28;20035;-41
2022/06/08 12:34:50;;;;;;;8.48;4.93;;;;;;;;;;5062779;28;20096;-43
2022/06/08 12:37:30;;;;;;;13.38;4.65;;;;;;;;;;5072132;28;20104;-43
2022/06/08 12:39:57;;;;;;;5.55;4.25;;;;;;;;;;5075852;28;20092;-46
2022/06/08 12:42:25;;;;;;;10.30;4.90;;;;;;;;;;5070572;28;20016;-43
2022/06/08 12:44:54;;;;;;;6.65;4.72;;;;;;;;;;5068574;28;20479;-44
2022/06/08 12:47:21;;;;;;;11.20;5.03;;;;;;;;;;5072824;28;20490;-47
2022/06/08 12:49:51;;;;;;;9.23;4.80;;;;;;;;;;5073308;28;20371;-44
2022/06/08 12:52:21;;;;;;;14.30;5.15;;;;;;;;;;5062007;28;20479;-45
2022/06/08 12:54:46;;;;;;;10.48;4.80;;;;;;;;;;5061965;28;20020;-44
2022/06/08 12:57:17;;;;;;;21.42;6.82;;;;;;;;;;5066234;28;20349;-44
2022/06/08 12:59:43;;;;;;;11.27;6.88;;;;;;;;;;5058775;28;20037;-45
2022/06/08 13:02:13;;;;;;;10.10;6.97;;;;;;;;;;5071924;28;20034;-44
2022/06/08 13:04:40;;;;;;;17.88;8.00;;;;;;;;;;5053771;28;20020;-46
2022/06/08 13:07:05;;;;;;;16.98;8.40;;;;;;;;;;5066683;28;20070;-40
2022/06/08 13:09:30;;;;;;;12.30;7.45;;;;;;;;;;5068016;28;20025;-47
2022/06/08 13:11:57;;;;;;;11.55;6.60;;;;;;;;;;5055339;28;20464;-43
2022/06/08 13:14:23;;;;;;;11.60;7.90;;;;;;;;;;5063959;28;20417;-43
2022/06/08 13:16:49;;;;;;;12.20;8.18;;;;;;;;;;5063511;28;20103;-44
2022/06/08 13:19:15;;;;;;;57.17;11.75;;;;;;;;;;5070977;28;20374;-46
2022/06/08 13:21:43;;;;;;;20.48;13.63;;;;;;;;;;5068799;28;20034;-46
2022/06/08 13:24:10;;;;;;;21.35;11.13;;;;;;;;;;5061039;28;20013;-43
2022/06/08 13:26:36;;;;;;;15.75;8.55;;;;;;;;;;5064562;28;20013;-45
2022/06/08 13:29:02;;;;;;;12.70;8.55;;;;;;;;;;5072649;28;20025;-41
2022/06/08 13:31:27;;;;;;;15.02;8.88;;;;;;;;;;5063485;28;20370;-42
2022/06/08 13:33:56;;;;;;;16.38;11.05;;;;;;;;;;5069349;28;20021;-44
2022/06/08 13:36:21;;;;;;;;;;;;;;;;;;5071891;28;20028;-44
2022/06/08 13:38:47;;;;;;;17.57;11.87;;;;;;;;;;5071878;28;19995;-45
2022/06/08 13:41:13;;;;;;;12.82;10.52;;;;;;;;;;5072550;28;20357;-45
2022/06/08 13:43:39;;;;;;;15.20;13.15;;;;;;;;;;5071962;28;20020;-45
2022/06/08 13:46:07;;;;;;;17.63;13.00;;;;;;;;;;5072538;28;20066;-45
2022/06/08 13:48:34;;;;;;;19.77;12.80;;;;;;;;;;5064038;28;20548;-46
2022/06/08 13:51:00;;;;;;;17.00;12.40;;;;;;;;;;5057828;28;20035;-46
2022/06/08 13:53:29;;;;;;;12.63;11.30;;;;;;;;;;5057925;28;20047;-45
2022/06/08 13:55:56;;;;;;;18.38;12.73;;;;;;;;;;5067336;28;20516;-45
2022/06/08 13:58:22;;;;;;;16.52;11.05;;;;;;;;;;5066717;28;20029;-44
2022/06/08 14:00:53;;;;;;;16.70;10.52;;;;;;;;;;5065908;28;20078;-46
2022/06/08 14:03:23;;;;;;;13.75;9.48;;;;;;;;;;5067964;28;20027;-44
2022/06/08 14:14:14;;;;;;;10.60;7.93;;;;;;;;;;5069168;28;20124;-37
2022/06/08 14:16:41;;;;;;;9.95;7.00;;;;;;;;;;5068902;28;20074;-35
2022/06/08 14:19:21;;;;;;;9.65;7.53;;;;;;;;;;5064201;28;20025;-34
2022/06/08 14:21:47;;;;;;;12.43;7.15;;;;;;;;;;5054217;28;20024;-34
2022/06/08 14:24:20;;;;;;;7.93;7.13;;;;;;;;;;5067809;28;20017;-35
2022/06/08 14:26:46;;;;;;;11.73;7.97;;;;;;;;;;5066199;28;20017;-33
2022/06/08 14:29:11;;;;;;;9.13;8.15;;;;;;;;;;5065744;28;20031;-35
2022/06/08 14:31:38;;;;;;;9.40;7.80;;;;;;;;;;5065411;28;20047;-35
2022/06/08 14:34:10;;;;;;;9.27;7.72;;;;;;;;;;5059017;28;20016;-35
2022/06/08 14:36:35;;;;;;;9.25;6.97;;;;;;;;;;5068613;28;20031;-34
2022/06/08 14:39:01;;;;;;;8.68;7.13;;;;;;;;;;5069744;28;20025;-37
2022/06/08 14:41:37;;;;;;;8.05;6.93;;;;;;;;;;5066370;28;20056;-34
2022/06/08 14:44:04;;;;;;;7.38;6.68;;;;;;;;;;5052811;28;20116;-35
2022/06/08 14:46:29;;;;;;;9.02;7.38;;;;;;;;;;5068642;28;20471;-34
2022/06/08 14:48:56;;;;;;;9.02;6.93;;;;;;;;;;5057160;28;20032;-34
2022/06/08 14:51:21;;;;;;;7.45;6.72;;;;;;;;;;5053612;28;20076;-37
2022/06/08 14:53:47;;;;;;;9.60;7.40;;;;;;;;;;5064449;28;20017;-33
2022/06/08 14:56:26;;;;;;;7.47;6.68;;;;;;;;;;5070664;28;20024;-38
2022/06/08 14:58:53;;;;;;;;;;;;;;;;;;5064715;28;20013;-33
2022/06/08 15:01:20;;;;;;;7.38;6.35;;;;;;;;;;5067086;28;19988;-34
2022/06/08 15:03:47;;;;;;;8.27;7.20;;;;;;;;;;5067159;28;20073;-34
2022/06/08 15:06:13;;;;;;;11.35;6.50;;;;;;;;;;5071820;28;20065;-36
2022/06/08 15:08:38;;;;;;;17.23;6.78;;;;;;;;;;5072068;28;20024;-35
2022/06/08 15:13:48;;;;;;;9.55;6.70;;;;;;;;;;5070805;28;20618;-36
2022/06/08 15:16:15;;;;;;;8.02;6.22;;;;;;;;;;5070058;28;20029;-34
2022/06/08 15:18:40;;;;;;;7.07;6.38;;;;;;;;;;5070128;28;20021;-34